Home   Weather   USA   Boone   Past weeks
Flag for USA

Past Weather in Boone, North Carolina, USA — Yesterday and Last 2 Weeks

Currently: 54 °F. Sunny. (Weather station: Boone - Watauga County Hospital Heliport, USA). See more current weather

Past Weather in Boone — Graph

°F

Boone Temperature Yesterday

Maximum temperature yesterday: 67 °F (at 6:10 pm)
Minimum temperature yesterday: 54 °F (at 4:50 am)
Average temperature yesterday: 59 °F

High & Low Weather Summary for the Past Weeks

 TemperatureHumidityPressure
High84 °F (May 20, 12:10 pm)100% (May 14, 6:30 am)30.33 "Hg (May 14, 6:30 am)
Low45 °F (May 17, 5:50 am)24% (May 17, 3:50 pm)29.89 "Hg (May 16, 6:10 am)
Average62 °F74%30.10 "Hg
* Reported May 14 6:10 am — May 29 6:50 am, Boone. Weather by CustomWeather, © 2022

Note: Actual official high and low records may vary slightly from our data, if they occured in-between our weather recording intervals... More about our weather records

Boone Weather History for the Previous 24 Hours

Scroll right to see more
 ConditionsComfort  
Time TempWeatherWind HumidityBarometerVisibility
6:50 am
Sun, May 29
49 °FFog.No wind100%30.14 "Hg4 mi
6:30 am49 °FSunny.No wind100%30.14 "Hg7 mi
5:50 am49 °FFog.No wind100%30.12 "Hg4 mi
5:30 am50 °FPassing clouds.No wind100%30.12 "Hg10 mi
5:10 am51 °FPassing clouds.No wind100%30.12 "Hg10 mi
4:10 am51 °FOvercast.No wind100%30.11 "Hg10 mi
3:30 am51 °FPassing clouds.No wind99%30.10 "Hg10 mi
3:10 am51 °FPassing clouds.No wind100%30.10 "Hg10 mi
2:50 am50 °FPassing clouds.No wind99%30.10 "Hg7 mi
2:10 am51 °FClear.No wind98%30.10 "Hg10 mi
1:50 am52 °FClear.No wind98%30.10 "Hg10 mi
1:10 am53 °FClear.No wind97%30.09 "Hg10 mi
12:50 am53 °FPassing clouds.No wind98%30.10 "Hg10 mi
12:30 am53 °FPassing clouds.No wind96%30.09 "Hg10 mi
12:10 am54 °FPassing clouds.No wind97%30.10 "Hg10 mi
11:50 pm
Sat, May 28
54 °FPassing clouds.No wind95%30.10 "Hg10 mi
11:30 pm54 °FPassing clouds.No wind95%30.10 "Hg10 mi
11:10 pm55 °FClear.No wind92%30.10 "Hg10 mi
10:50 pm57 °FClear.No wind84%30.09 "Hg10 mi
10:30 pm58 °FPassing clouds.No wind77%30.09 "Hg10 mi
10:10 pm58 °FOvercast.No wind76%30.09 "Hg10 mi
9:50 pm58 °FOvercast.No wind79%30.08 "Hg10 mi
9:30 pm59 °FOvercast.No wind75%30.07 "Hg10 mi
9:10 pm59 °FOvercast.No wind74%30.07 "Hg10 mi
8:50 pm60 °FOvercast.No wind70%30.06 "Hg10 mi
8:10 pm62 °FPartly sunny.No wind64%30.04 "Hg10 mi
7:50 pm65 °FPartly sunny.No wind55%30.04 "Hg10 mi
7:30 pm65 °FScattered clouds.3 mph54%30.03 "Hg10 mi
7:10 pm67 °FSunny.6 mph44%30.03 "Hg10 mi
6:50 pm67 °FScattered clouds.3 mph46%30.03 "Hg10 mi
6:10 pm67 °FPartly sunny.6 mph46%30.02 "Hg10 mi
5:50 pm66 °FPartly sunny.No wind47%30.02 "Hg10 mi
5:10 pm64 °FScattered clouds.3 mph50%30.03 "Hg10 mi
4:30 pm65 °FPartly sunny.7 mph50%30.02 "Hg10 mi
4:10 pm65 °FOvercast.8 mph51%30.03 "Hg10 mi
3:50 pm64 °FOvercast.8 mph52%30.03 "Hg10 mi
3:10 pm64 °FOvercast.10 mph53%30.03 "Hg10 mi
2:50 pm63 °FMore clouds than sun.7 mph55%30.04 "Hg10 mi
2:30 pm63 °FMore clouds than sun.9 mph57%30.04 "Hg10 mi
2:10 pm62 °FOvercast.8 mph57%30.04 "Hg10 mi
1:50 pm62 °FOvercast.9 mph58%30.04 "Hg10 mi
1:10 pm61 °FMore clouds than sun.12 mph59%30.04 "Hg10 mi
12:50 pm61 °FMore clouds than sun.9 mph60%30.04 "Hg10 mi
12:10 pm60 °FOvercast.9 mph61%30.05 "Hg10 mi
11:50 am61 °FOvercast.15 mph56%30.03 "Hg10 mi
11:10 am59 °FOvercast.12 mph63%30.03 "Hg10 mi
10:50 am59 °FMostly cloudy.14 mph65%30.02 "Hg10 mi
10:10 am57 °FMostly cloudy.7 mph70%30.01 "Hg10 mi
9:30 am56 °FOvercast.12 mph71%30.00 "Hg10 mi
9:10 am56 °FOvercast.13 mph72%29.99 "Hg10 mi
8:50 am56 °FOvercast.12 mph72%30.00 "Hg10 mi
8:30 am55 °FOvercast.14 mph73%29.99 "Hg10 mi
8:10 am54 °FOvercast.10 mph75%30.00 "Hg10 mi
Weather by CustomWeather, © 2022

See weather overview